sensor_id;sensor_type;location;lat;lon;timestamp;P1;durP1;ratioP1;P2;durP2;ratioP2
68608;SDS011;55581;46.718;7.690;2023-07-13T00:01:50;6.78;;;2.67;;
68608;SDS011;55581;46.718;7.690;2023-07-13T00:04:17;9.80;;;2.90;;
68608;SDS011;55581;46.718;7.690;2023-07-13T00:06:44;7.90;;;2.70;;
68608;SDS011;55581;46.718;7.690;2023-07-13T00:09:11;5.90;;;2.63;;
68608;SDS011;55581;46.718;7.690;2023-07-13T00:11:38;7.50;;;2.23;;
68608;SDS011;55581;46.718;7.690;2023-07-13T00:14:04;6.82;;;2.85;;
68608;SDS011;55581;46.718;7.690;2023-07-13T00:16:29;6.30;;;2.53;;
68608;SDS011;55581;46.718;7.690;2023-07-13T00:18:54;5.47;;;2.30;;
68608;SDS011;55581;46.718;7.690;2023-07-13T00:21:20;7.25;;;2.53;;
68608;SDS011;55581;46.718;7.690;2023-07-13T00:23:45;6.87;;;3.10;;
68608;SDS011;55581;46.718;7.690;2023-07-13T00:26:11;6.70;;;3.07;;
68608;SDS011;55581;46.718;7.690;2023-07-13T00:28:37;7.35;;;3.33;;
68608;SDS011;55581;46.718;7.690;2023-07-13T00:31:03;6.00;;;2.50;;
68608;SDS011;55581;46.718;7.690;2023-07-13T00:33:32;7.70;;;3.10;;
68608;SDS011;55581;46.718;7.690;2023-07-13T00:35:58;8.17;;;2.83;;
68608;SDS011;55581;46.718;7.690;2023-07-13T00:38:23;6.55;;;2.92;;
68608;SDS011;55581;46.718;7.690;2023-07-13T00:40:49;5.60;;;2.60;;
68608;SDS011;55581;46.718;7.690;2023-07-13T00:43:19;6.75;;;2.55;;
68608;SDS011;55581;46.718;7.690;2023-07-13T00:48:12;5.72;;;2.70;;
68608;SDS011;55581;46.718;7.690;2023-07-13T00:50:42;6.95;;;2.97;;
68608;SDS011;55581;46.718;7.690;2023-07-13T00:53:11;11.48;;;2.90;;
68608;SDS011;55581;46.718;7.690;2023-07-13T00:55:36;7.20;;;2.93;;
68608;SDS011;55581;46.718;7.690;2023-07-13T00:58:03;5.30;;;2.72;;
68608;SDS011;55581;46.718;7.690;2023-07-13T01:00:30;5.70;;;2.33;;
68608;SDS011;55581;46.718;7.690;2023-07-13T01:02:55;7.33;;;2.30;;
68608;SDS011;55581;46.718;7.690;2023-07-13T01:05:24;5.90;;;2.23;;
68608;SDS011;55581;46.718;7.690;2023-07-13T01:07:50;6.80;;;2.90;;
68608;SDS011;55581;46.718;7.690;2023-07-13T01:10:17;5.95;;;2.78;;
68608;SDS011;55581;46.718;7.690;2023-07-13T01:12:45;9.30;;;2.97;;
68608;SDS011;55581;46.718;7.690;2023-07-13T01:18:12;6.28;;;2.42;;
68608;SDS011;55581;46.718;7.690;2023-07-13T01:20:40;6.70;;;2.50;;
68608;SDS011;55581;46.718;7.690;2023-07-13T01:23:08;5.38;;;2.50;;
68608;SDS011;55581;46.718;7.690;2023-07-13T01:25:39;6.65;;;2.58;;
68608;SDS011;55581;46.718;7.690;2023-07-13T01:28:05;6.10;;;2.60;;
68608;SDS011;55581;46.718;7.690;2023-07-13T01:30:36;5.85;;;2.33;;
68608;SDS011;55581;46.718;7.690;2023-07-13T01:33:05;6.33;;;2.63;;
68608;SDS011;55581;46.718;7.690;2023-07-13T01:35:32;6.78;;;2.38;;
68608;SDS011;55581;46.718;7.690;2023-07-13T01:37:58;5.07;;;2.40;;
68608;SDS011;55581;46.718;7.690;2023-07-13T01:40:26;5.18;;;2.30;;
68608;SDS011;55581;46.718;7.690;2023-07-13T01:42:52;6.75;;;2.80;;
68608;SDS011;55581;46.718;7.690;2023-07-13T01:45:18;4.57;;;1.87;;
68608;SDS011;55581;46.718;7.690;2023-07-13T01:47:45;5.32;;;2.60;;
68608;SDS011;55581;46.718;7.690;2023-07-13T01:50:11;6.90;;;2.60;;
68608;SDS011;55581;46.718;7.690;2023-07-13T01:52:36;5.57;;;2.30;;
68608;SDS011;55581;46.718;7.690;2023-07-13T01:55:02;5.30;;;2.40;;
68608;SDS011;55581;46.718;7.690;2023-07-13T01:57:29;6.03;;;2.38;;
68608;SDS011;55581;46.718;7.690;2023-07-13T01:59:55;7.90;;;2.57;;
68608;SDS011;55581;46.718;7.690;2023-07-13T02:02:20;6.15;;;2.42;;
68608;SDS011;55581;46.718;7.690;2023-07-13T02:04:46;5.97;;;2.63;;
68608;SDS011;55581;46.718;7.690;2023-07-13T02:07:11;6.10;;;2.27;;
68608;SDS011;55581;46.718;7.690;2023-07-13T02:09:37;5.40;;;2.43;;
68608;SDS011;55581;46.718;7.690;2023-07-13T02:12:02;6.25;;;2.42;;
68608;SDS011;55581;46.718;7.690;2023-07-13T02:14:28;6.50;;;2.50;;
68608;SDS011;55581;46.718;7.690;2023-07-13T02:16:53;6.10;;;2.88;;
68608;SDS011;55581;46.718;7.690;2023-07-13T02:19:19;7.00;;;2.50;;
68608;SDS011;55581;46.718;7.690;2023-07-13T02:21:44;7.20;;;3.50;;
68608;SDS011;55581;46.718;7.690;2023-07-13T02:24:10;7.70;;;2.70;;
68608;SDS011;55581;46.718;7.690;2023-07-13T02:26:40;6.20;;;2.83;;
68608;SDS011;55581;46.718;7.690;2023-07-13T02:29:05;6.85;;;2.78;;
68608;SDS011;55581;46.718;7.690;2023-07-13T02:31:31;7.27;;;3.03;;
68608;SDS011;55581;46.718;7.690;2023-07-13T02:33:56;7.83;;;2.77;;
68608;SDS011;55581;46.718;7.690;2023-07-13T02:36:24;5.97;;;3.08;;
68608;SDS011;55581;46.718;7.690;2023-07-13T02:38:49;7.27;;;2.90;;
68608;SDS011;55581;46.718;7.690;2023-07-13T02:41:16;6.93;;;2.90;;
68608;SDS011;55581;46.718;7.690;2023-07-13T02:43:41;10.20;;;2.80;;
68608;SDS011;55581;46.718;7.690;2023-07-13T02:46:07;6.10;;;2.80;;
68608;SDS011;55581;46.718;7.690;2023-07-13T02:48:33;5.63;;;2.60;;
68608;SDS011;55581;46.718;7.690;2023-07-13T02:50:59;6.38;;;2.75;;
68608;SDS011;55581;46.718;7.690;2023-07-13T02:53:24;7.00;;;2.40;;
68608;SDS011;55581;46.718;7.690;2023-07-13T02:55:50;6.47;;;3.27;;
68608;SDS011;55581;46.718;7.690;2023-07-13T02:58:16;6.03;;;2.70;;
68608;SDS011;55581;46.718;7.690;2023-07-13T03:00:43;6.55;;;2.95;;
68608;SDS011;55581;46.718;7.690;2023-07-13T03:03:09;8.25;;;2.92;;
68608;SDS011;55581;46.718;7.690;2023-07-13T03:05:36;7.00;;;2.53;;
68608;SDS011;55581;46.718;7.690;2023-07-13T03:08:02;7.35;;;2.85;;
68608;SDS011;55581;46.718;7.690;2023-07-13T03:10:31;8.18;;;3.15;;
68608;SDS011;55581;46.718;7.690;2023-07-13T03:12:57;7.03;;;3.20;;
68608;SDS011;55581;46.718;7.690;2023-07-13T03:15:25;8.30;;;3.20;;
68608;SDS011;55581;46.718;7.690;2023-07-13T03:17:51;10.10;;;3.30;;
68608;SDS011;55581;46.718;7.690;2023-07-13T03:20:19;7.32;;;2.75;;
68608;SDS011;55581;46.718;7.690;2023-07-13T03:22:45;7.18;;;3.13;;
68608;SDS011;55581;46.718;7.690;2023-07-13T03:25:13;9.50;;;3.00;;
68608;SDS011;55581;46.718;7.690;2023-07-13T03:27:39;5.97;;;3.42;;
68608;SDS011;55581;46.718;7.690;2023-07-13T03:30:07;7.28;;;3.22;;
68608;SDS011;55581;46.718;7.690;2023-07-13T03:32:36;8.00;;;2.70;;
68608;SDS011;55581;46.718;7.690;2023-07-13T03:35:01;7.17;;;2.83;;
68608;SDS011;55581;46.718;7.690;2023-07-13T03:37:27;8.77;;;2.83;;
68608;SDS011;55581;46.718;7.690;2023-07-13T03:39:53;6.33;;;3.00;;
68608;SDS011;55581;46.718;7.690;2023-07-13T03:42:19;6.95;;;3.22;;
68608;SDS011;55581;46.718;7.690;2023-07-13T03:44:44;8.77;;;3.20;;
68608;SDS011;55581;46.718;7.690;2023-07-13T03:47:15;6.13;;;3.03;;
68608;SDS011;55581;46.718;7.690;2023-07-13T03:49:41;6.27;;;3.00;;
68608;SDS011;55581;46.718;7.690;2023-07-13T03:52:06;7.15;;;3.38;;
68608;SDS011;55581;46.718;7.690;2023-07-13T03:54:32;7.63;;;3.27;;
68608;SDS011;55581;46.718;7.690;2023-07-13T03:56:57;7.78;;;3.20;;
68608;SDS011;55581;46.718;7.690;2023-07-13T03:59:23;6.37;;;2.70;;
68608;SDS011;55581;46.718;7.690;2023-07-13T04:01:48;7.10;;;2.47;;
68608;SDS011;55581;46.718;7.690;2023-07-13T04:04:14;5.80;;;2.80;;
68608;SDS011;55581;46.718;7.690;2023-07-13T04:06:40;5.82;;;2.63;;
68608;SDS011;55581;46.718;7.690;2023-07-13T04:09:06;7.37;;;2.90;;
68608;SDS011;55581;46.718;7.690;2023-07-13T04:11:31;8.13;;;3.30;;
68608;SDS011;55581;46.718;7.690;2023-07-13T04:13:58;5.40;;;2.50;;
68608;SDS011;55581;46.718;7.690;2023-07-13T04:16:24;7.13;;;2.80;;
68608;SDS011;55581;46.718;7.690;2023-07-13T04:18:52;7.07;;;3.00;;
68608;SDS011;55581;46.718;7.690;2023-07-13T04:21:19;5.15;;;2.47;;
68608;SDS011;55581;46.718;7.690;2023-07-13T04:23:45;5.80;;;2.60;;
68608;SDS011;55581;46.718;7.690;2023-07-13T04:26:11;8.00;;;3.05;;
68608;SDS011;55581;46.718;7.690;2023-07-13T04:28:39;7.40;;;2.93;;
68608;SDS011;55581;46.718;7.690;2023-07-13T04:31:07;6.60;;;2.60;;
68608;SDS011;55581;46.718;7.690;2023-07-13T04:33:32;5.50;;;2.83;;
68608;SDS011;55581;46.718;7.690;2023-07-13T04:35:58;7.03;;;3.20;;
68608;SDS011;55581;46.718;7.690;2023-07-13T04:38:25;8.87;;;2.70;;
68608;SDS011;55581;46.718;7.690;2023-07-13T04:40:54;7.40;;;2.90;;
68608;SDS011;55581;46.718;7.690;2023-07-13T04:43:21;8.13;;;2.65;;
68608;SDS011;55581;46.718;7.690;2023-07-13T04:45:47;6.90;;;2.88;;
68608;SDS011;55581;46.718;7.690;2023-07-13T04:48:12;9.83;;;2.50;;
68608;SDS011;55581;46.718;7.690;2023-07-13T04:50:39;7.57;;;2.92;;
68608;SDS011;55581;46.718;7.690;2023-07-13T04:53:08;6.00;;;2.20;;
68608;SDS011;55581;46.718;7.690;2023-07-13T04:55:33;7.63;;;2.90;;
68608;SDS011;55581;46.718;7.690;2023-07-13T04:57:59;9.13;;;3.07;;
68608;SDS011;55581;46.718;7.690;2023-07-13T05:00:25;6.50;;;2.40;;
68608;SDS011;55581;46.718;7.690;2023-07-13T05:02:51;6.80;;;2.90;;
68608;SDS011;55581;46.718;7.690;2023-07-13T05:05:19;7.55;;;2.38;;
68608;SDS011;55581;46.718;7.690;2023-07-13T05:07:45;6.97;;;2.40;;
68608;SDS011;55581;46.718;7.690;2023-07-13T05:10:10;12.77;;;2.90;;
68608;SDS011;55581;46.718;7.690;2023-07-13T05:12:36;3.77;;;1.10;;
68608;SDS011;55581;46.718;7.690;2023-07-13T05:15:03;6.18;;;1.40;;
68608;SDS011;55581;46.718;7.690;2023-07-13T05:17:31;5.65;;;1.65;;
68608;SDS011;55581;46.718;7.690;2023-07-13T05:19:56;4.27;;;1.07;;
68608;SDS011;55581;46.718;7.690;2023-07-13T05:22:24;4.13;;;1.60;;
68608;SDS011;55581;46.718;7.690;2023-07-13T05:24:49;4.77;;;1.47;;
68608;SDS011;55581;46.718;7.690;2023-07-13T05:27:15;4.70;;;1.50;;
68608;SDS011;55581;46.718;7.690;2023-07-13T05:29:40;3.35;;;1.08;;
68608;SDS011;55581;46.718;7.690;2023-07-13T05:32:06;3.83;;;1.60;;
68608;SDS011;55581;46.718;7.690;2023-07-13T05:34:32;3.88;;;1.45;;
68608;SDS011;55581;46.718;7.690;2023-07-13T05:36:57;5.63;;;1.13;;
68608;SDS011;55581;46.718;7.690;2023-07-13T05:39:23;6.10;;;1.37;;
68608;SDS011;55581;46.718;7.690;2023-07-13T05:41:48;3.72;;;1.13;;
68608;SDS011;55581;46.718;7.690;2023-07-13T05:44:14;4.63;;;1.17;;
68608;SDS011;55581;46.718;7.690;2023-07-13T05:46:39;4.50;;;1.20;;
68608;SDS011;55581;46.718;7.690;2023-07-13T05:49:05;3.80;;;1.20;;
68608;SDS011;55581;46.718;7.690;2023-07-13T05:51:30;4.03;;;1.37;;
68608;SDS011;55581;46.718;7.690;2023-07-13T05:53:55;3.37;;;1.37;;
68608;SDS011;55581;46.718;7.690;2023-07-13T05:56:21;4.13;;;1.00;;
68608;SDS011;55581;46.718;7.690;2023-07-13T05:58:48;4.17;;;1.40;;
68608;SDS011;55581;46.718;7.690;2023-07-13T06:01:15;5.00;;;1.02;;
68608;SDS011;55581;46.718;7.690;2023-07-13T06:03:42;4.43;;;1.23;;
68608;SDS011;55581;46.718;7.690;2023-07-13T06:06:08;3.58;;;0.88;;
68608;SDS011;55581;46.718;7.690;2023-07-13T06:08:36;3.53;;;0.75;;
68608;SDS011;55581;46.718;7.690;2023-07-13T06:11:05;2.93;;;0.70;;
68608;SDS011;55581;46.718;7.690;2023-07-13T06:13:41;2.10;;;0.40;;
68608;SDS011;55581;46.718;7.690;2023-07-13T06:16:07;2.10;;;0.43;;
68608;SDS011;55581;46.718;7.690;2023-07-13T06:18:34;2.20;;;0.30;;
68608;SDS011;55581;46.718;7.690;2023-07-13T06:21:05;2.10;;;0.43;;
68608;SDS011;55581;46.718;7.690;2023-07-13T06:23:31;2.95;;;0.30;;
68608;SDS011;55581;46.718;7.690;2023-07-13T06:25:56;1.80;;;0.30;;
68608;SDS011;55581;46.718;7.690;2023-07-13T06:28:24;1.35;;;0.28;;
68608;SDS011;55581;46.718;7.690;2023-07-13T06:30:50;1.63;;;0.30;;
68608;SDS011;55581;46.718;7.690;2023-07-13T06:33:15;2.43;;;0.47;;
68608;SDS011;55581;46.718;7.690;2023-07-13T06:35:41;2.42;;;0.40;;
68608;SDS011;55581;46.718;7.690;2023-07-13T06:38:07;2.55;;;0.65;;
68608;SDS011;55581;46.718;7.690;2023-07-13T06:40:37;2.37;;;0.30;;
68608;SDS011;55581;46.718;7.690;2023-07-13T06:43:02;2.15;;;0.40;;
68608;SDS011;55581;46.718;7.690;2023-07-13T06:45:27;2.10;;;0.40;;
68608;SDS011;55581;46.718;7.690;2023-07-13T06:47:55;1.33;;;0.20;;
68608;SDS011;55581;46.718;7.690;2023-07-13T06:50:21;1.57;;;0.20;;
68608;SDS011;55581;46.718;7.690;2023-07-13T06:52:46;1.20;;;0.30;;
68608;SDS011;55581;46.718;7.690;2023-07-13T06:55:11;1.60;;;0.40;;
68608;SDS011;55581;46.718;7.690;2023-07-13T06:57:37;2.35;;;0.40;;
68608;SDS011;55581;46.718;7.690;2023-07-13T07:00:02;2.67;;;0.60;;
68608;SDS011;55581;46.718;7.690;2023-07-13T07:02:28;1.70;;;0.40;;
68608;SDS011;55581;46.718;7.690;2023-07-13T07:04:53;2.80;;;0.30;;
68608;SDS011;55581;46.718;7.690;2023-07-13T07:07:23;2.65;;;0.47;;
68608;SDS011;55581;46.718;7.690;2023-07-13T07:09:50;1.10;;;0.20;;
68608;SDS011;55581;46.718;7.690;2023-07-13T07:12:15;1.90;;;0.40;;
68608;SDS011;55581;46.718;7.690;2023-07-13T07:14:41;2.10;;;0.47;;
68608;SDS011;55581;46.718;7.690;2023-07-13T07:17:06;2.50;;;0.43;;
68608;SDS011;55581;46.718;7.690;2023-07-13T07:19:38;4.75;;;0.90;;
68608;SDS011;55581;46.718;7.690;2023-07-13T07:22:03;3.20;;;0.45;;
68608;SDS011;55581;46.718;7.690;2023-07-13T07:24:29;3.07;;;0.63;;
68608;SDS011;55581;46.718;7.690;2023-07-13T07:26:54;1.57;;;0.30;;
68608;SDS011;55581;46.718;7.690;2023-07-13T07:29:22;4.40;;;0.70;;
68608;SDS011;55581;46.718;7.690;2023-07-13T07:31:50;2.97;;;0.60;;
68608;SDS011;55581;46.718;7.690;2023-07-13T07:34:16;3.78;;;0.60;;
68608;SDS011;55581;46.718;7.690;2023-07-13T07:36:41;2.60;;;0.40;;
68608;SDS011;55581;46.718;7.690;2023-07-13T07:39:06;1.92;;;0.50;;
68608;SDS011;55581;46.718;7.690;2023-07-13T07:41:33;1.60;;;0.20;;
68608;SDS011;55581;46.718;7.690;2023-07-13T07:43:59;2.38;;;0.40;;
68608;SDS011;55581;46.718;7.690;2023-07-13T07:46:24;1.30;;;0.20;;
68608;SDS011;55581;46.718;7.690;2023-07-13T07:48:49;2.03;;;0.40;;
68608;SDS011;55581;46.718;7.690;2023-07-13T07:51:15;3.33;;;0.30;;
68608;SDS011;55581;46.718;7.690;2023-07-13T07:53:40;2.60;;;0.50;;
68608;SDS011;55581;46.718;7.690;2023-07-13T07:56:06;2.03;;;0.40;;
68608;SDS011;55581;46.718;7.690;2023-07-13T07:58:31;1.60;;;0.33;;
68608;SDS011;55581;46.718;7.690;2023-07-13T08:01:03;2.47;;;0.47;;
68608;SDS011;55581;46.718;7.690;2023-07-13T08:03:30;1.83;;;0.40;;
68608;SDS011;55581;46.718;7.690;2023-07-13T08:05:55;7.03;;;0.50;;
68608;SDS011;55581;46.718;7.690;2023-07-13T08:08:21;3.20;;;0.40;;
68608;SDS011;55581;46.718;7.690;2023-07-13T08:10:46;1.85;;;0.30;;
68608;SDS011;55581;46.718;7.690;2023-07-13T08:13:11;2.40;;;0.50;;
68608;SDS011;55581;46.718;7.690;2023-07-13T08:15:37;2.23;;;0.43;;
68608;SDS011;55581;46.718;7.690;2023-07-13T08:18:02;1.33;;;0.30;;
68608;SDS011;55581;46.718;7.690;2023-07-13T08:20:30;2.65;;;0.40;;
68608;SDS011;55581;46.718;7.690;2023-07-13T08:22:55;2.50;;;0.57;;
68608;SDS011;55581;46.718;7.690;2023-07-13T08:25:21;3.53;;;0.40;;
68608;SDS011;55581;46.718;7.690;2023-07-13T08:27:47;2.47;;;0.90;;
68608;SDS011;55581;46.718;7.690;2023-07-13T08:30:13;3.30;;;0.60;;
68608;SDS011;55581;46.718;7.690;2023-07-13T08:32:38;3.17;;;0.47;;
68608;SDS011;55581;46.718;7.690;2023-07-13T08:35:04;1.87;;;0.33;;
68608;SDS011;55581;46.718;7.690;2023-07-13T08:37:30;3.45;;;0.38;;
68608;SDS011;55581;46.718;7.690;2023-07-13T08:39:56;1.70;;;0.33;;
68608;SDS011;55581;46.718;7.690;2023-07-13T08:45:07;2.10;;;0.60;;
68608;SDS011;55581;46.718;7.690;2023-07-13T08:48:00;1.93;;;0.43;;
68608;SDS011;55581;46.718;7.690;2023-07-13T08:50:33;3.63;;;0.70;;
68608;SDS011;55581;46.718;7.690;2023-07-13T08:53:14;3.13;;;0.70;;
68608;SDS011;55581;46.718;7.690;2023-07-13T08:55:43;3.22;;;1.13;;
68608;SDS011;55581;46.718;7.690;2023-07-13T08:58:11;1.95;;;0.60;;
68608;SDS011;55581;46.718;7.690;2023-07-13T09:09:26;2.15;;;0.70;;
68608;SDS011;55581;46.718;7.690;2023-07-13T09:12:07;2.72;;;0.77;;
68608;SDS011;55581;46.718;7.690;2023-07-13T09:14:42;2.27;;;0.50;;
68608;SDS011;55581;46.718;7.690;2023-07-13T09:17:15;1.88;;;0.60;;
68608;SDS011;55581;46.718;7.690;2023-07-13T09:19:53;2.30;;;0.85;;
68608;SDS011;55581;46.718;7.690;2023-07-13T09:22:24;2.55;;;0.63;;
68608;SDS011;55581;46.718;7.690;2023-07-13T09:25:02;2.92;;;0.50;;
68608;SDS011;55581;46.718;7.690;2023-07-13T09:27:31;1.80;;;0.63;;
68608;SDS011;55581;46.718;7.690;2023-07-13T09:30:02;1.77;;;0.70;;
68608;SDS011;55581;46.718;7.690;2023-07-13T09:32:50;2.50;;;0.73;;
68608;SDS011;55581;46.718;7.690;2023-07-13T09:35:23;4.03;;;0.75;;
68608;SDS011;55581;46.718;7.690;2023-07-13T09:37:53;2.70;;;0.70;;
68608;SDS011;55581;46.718;7.690;2023-07-13T09:40:36;2.33;;;0.87;;
68608;SDS011;55581;46.718;7.690;2023-07-13T09:43:24;2.05;;;0.63;;
68608;SDS011;55581;46.718;7.690;2023-07-13T09:45:50;1.70;;;0.52;;
68608;SDS011;55581;46.718;7.690;2023-07-13T09:48:16;2.47;;;0.70;;
68608;SDS011;55581;46.718;7.690;2023-07-13T09:50:43;2.70;;;0.95;;
68608;SDS011;55581;46.718;7.690;2023-07-13T09:53:16;1.80;;;0.57;;
68608;SDS011;55581;46.718;7.690;2023-07-13T09:55:44;1.90;;;0.68;;
68608;SDS011;55581;46.718;7.690;2023-07-13T10:00:43;2.10;;;0.55;;
68608;SDS011;55581;46.718;7.690;2023-07-13T10:03:23;2.00;;;0.68;;
68608;SDS011;55581;46.718;7.690;2023-07-13T10:05:52;1.98;;;0.70;;
68608;SDS011;55581;46.718;7.690;2023-07-13T10:08:25;2.72;;;0.65;;
68608;SDS011;55581;46.718;7.690;2023-07-13T10:10:53;1.80;;;0.60;;
68608;SDS011;55581;46.718;7.690;2023-07-13T10:13:31;1.88;;;0.50;;
68608;SDS011;55581;46.718;7.690;2023-07-13T10:16:01;2.33;;;0.70;;
68608;SDS011;55581;46.718;7.690;2023-07-13T10:18:30;4.00;;;0.73;;
68608;SDS011;55581;46.718;7.690;2023-07-13T10:21:09;2.47;;;0.70;;
68608;SDS011;55581;46.718;7.690;2023-07-13T10:23:38;3.20;;;0.67;;
68608;SDS011;55581;46.718;7.690;2023-07-13T10:26:09;3.17;;;0.90;;
68608;SDS011;55581;46.718;7.690;2023-07-13T10:28:42;3.50;;;1.00;;
68608;SDS011;55581;46.718;7.690;2023-07-13T10:31:13;2.58;;;0.70;;
68608;SDS011;55581;46.718;7.690;2023-07-13T10:33:41;2.30;;;0.70;;
68608;SDS011;55581;46.718;7.690;2023-07-13T10:38:56;2.35;;;1.00;;
68608;SDS011;55581;46.718;7.690;2023-07-13T10:41:24;2.75;;;0.80;;
68608;SDS011;55581;46.718;7.690;2023-07-13T10:43:52;2.27;;;0.83;;
68608;SDS011;55581;46.718;7.690;2023-07-13T10:46:24;2.83;;;0.70;;
68608;SDS011;55581;46.718;7.690;2023-07-13T10:48:57;3.75;;;0.80;;
68608;SDS011;55581;46.718;7.690;2023-07-13T10:51:25;2.80;;;1.00;;
68608;SDS011;55581;46.718;7.690;2023-07-13T10:56:41;3.10;;;0.80;;
68608;SDS011;55581;46.718;7.690;2023-07-13T10:59:18;2.35;;;0.70;;
68608;SDS011;55581;46.718;7.690;2023-07-13T11:05:12;2.65;;;0.88;;
68608;SDS011;55581;46.718;7.690;2023-07-13T11:07:55;2.03;;;0.60;;
68608;SDS011;55581;46.718;7.690;2023-07-13T11:10:46;2.17;;;0.70;;
68608;SDS011;55581;46.718;7.690;2023-07-13T11:16:02;2.15;;;0.70;;
68608;SDS011;55581;46.718;7.690;2023-07-13T11:18:40;2.28;;;0.80;;
68608;SDS011;55581;46.718;7.690;2023-07-13T11:21:13;2.30;;;0.90;;
68608;SDS011;55581;46.718;7.690;2023-07-13T11:24:04;3.10;;;1.00;;
68608;SDS011;55581;46.718;7.690;2023-07-13T11:26:55;2.70;;;0.98;;
68608;SDS011;55581;46.718;7.690;2023-07-13T11:29:36;2.90;;;1.20;;
68608;SDS011;55581;46.718;7.690;2023-07-13T11:32:20;2.45;;;0.95;;
68608;SDS011;55581;46.718;7.690;2023-07-13T11:34:49;2.88;;;0.80;;
68608;SDS011;55581;46.718;7.690;2023-07-13T11:37:16;2.25;;;0.88;;
68608;SDS011;55581;46.718;7.690;2023-07-13T11:39:44;2.42;;;0.77;;
68608;SDS011;55581;46.718;7.690;2023-07-13T11:42:13;2.37;;;0.60;;
68608;SDS011;55581;46.718;7.690;2023-07-13T11:44:42;3.03;;;1.00;;
68608;SDS011;55581;46.718;7.690;2023-07-13T11:47:19;2.22;;;0.82;;
68608;SDS011;55581;46.718;7.690;2023-07-13T11:49:50;2.60;;;0.85;;
68608;SDS011;55581;46.718;7.690;2023-07-13T11:52:21;2.83;;;0.80;;
68608;SDS011;55581;46.718;7.690;2023-07-13T11:54:54;2.30;;;0.63;;
68608;SDS011;55581;46.718;7.690;2023-07-13T11:57:25;2.65;;;0.90;;
68608;SDS011;55581;46.718;7.690;2023-07-13T11:59:51;2.30;;;0.70;;
68608;SDS011;55581;46.718;7.690;2023-07-13T12:02:27;3.03;;;0.90;;
68608;SDS011;55581;46.718;7.690;2023-07-13T12:04:54;2.45;;;1.00;;
68608;SDS011;55581;46.718;7.690;2023-07-13T12:07:22;1.90;;;0.60;;
68608;SDS011;55581;46.718;7.690;2023-07-13T12:09:47;2.20;;;0.82;;
68608;SDS011;55581;46.718;7.690;2023-07-13T12:12:17;2.13;;;0.90;;
68608;SDS011;55581;46.718;7.690;2023-07-13T12:14:44;3.70;;;1.15;;
68608;SDS011;55581;46.718;7.690;2023-07-13T12:17:15;3.70;;;0.83;;
68608;SDS011;55581;46.718;7.690;2023-07-13T12:19:43;2.75;;;0.80;;
68608;SDS011;55581;46.718;7.690;2023-07-13T12:22:12;2.78;;;1.08;;
68608;SDS011;55581;46.718;7.690;2023-07-13T12:24:39;2.53;;;0.67;;
68608;SDS011;55581;46.718;7.690;2023-07-13T12:27:16;2.42;;;0.93;;
68608;SDS011;55581;46.718;7.690;2023-07-13T12:29:51;3.25;;;0.85;;
68608;SDS011;55581;46.718;7.690;2023-07-13T12:32:19;2.80;;;0.65;;
68608;SDS011;55581;46.718;7.690;2023-07-13T12:34:51;5.10;;;0.97;;
68608;SDS011;55581;46.718;7.690;2023-07-13T12:37:22;2.78;;;1.10;;
68608;SDS011;55581;46.718;7.690;2023-07-13T12:39:48;3.15;;;1.13;;
68608;SDS011;55581;46.718;7.690;2023-07-13T12:44:54;4.82;;;1.00;;
68608;SDS011;55581;46.718;7.690;2023-07-13T12:47:23;2.73;;;0.90;;
68608;SDS011;55581;46.718;7.690;2023-07-13T12:49:59;3.72;;;0.90;;
68608;SDS011;55581;46.718;7.690;2023-07-13T12:52:33;3.17;;;1.10;;
68608;SDS011;55581;46.718;7.690;2023-07-13T12:55:04;3.78;;;1.02;;
68608;SDS011;55581;46.718;7.690;2023-07-13T12:57:41;4.17;;;1.43;;
68608;SDS011;55581;46.718;7.690;2023-07-13T13:02:50;3.63;;;0.90;;
68608;SDS011;55581;46.718;7.690;2023-07-13T13:05:17;2.88;;;1.00;;
68608;SDS011;55581;46.718;7.690;2023-07-13T13:07:43;2.60;;;0.90;;
68608;SDS011;55581;46.718;7.690;2023-07-13T13:10:11;2.30;;;0.70;;
68608;SDS011;55581;46.718;7.690;2023-07-13T13:12:37;2.80;;;1.02;;
68608;SDS011;55581;46.718;7.690;2023-07-13T13:15:03;4.22;;;1.17;;
68608;SDS011;55581;46.718;7.690;2023-07-13T13:17:31;3.17;;;0.90;;
68608;SDS011;55581;46.718;7.690;2023-07-13T13:19:58;3.13;;;1.30;;
68608;SDS011;55581;46.718;7.690;2023-07-13T13:22:24;3.83;;;1.40;;
68608;SDS011;55581;46.718;7.690;2023-07-13T13:24:49;3.10;;;1.20;;
68608;SDS011;55581;46.718;7.690;2023-07-13T13:27:18;2.17;;;0.77;;
68608;SDS011;55581;46.718;7.690;2023-07-13T13:29:46;3.90;;;1.27;;
68608;SDS011;55581;46.718;7.690;2023-07-13T13:32:14;3.05;;;1.10;;
68608;SDS011;55581;46.718;7.690;2023-07-13T13:34:40;2.77;;;0.90;;
68608;SDS011;55581;46.718;7.690;2023-07-13T13:37:24;5.47;;;1.27;;
68608;SDS011;55581;46.718;7.690;2023-07-13T13:39:51;3.65;;;1.20;;
68608;SDS011;55581;46.718;7.690;2023-07-13T13:42:18;4.47;;;1.00;;
68608;SDS011;55581;46.718;7.690;2023-07-13T13:44:49;2.80;;;1.02;;
68608;SDS011;55581;46.718;7.690;2023-07-13T13:47:30;2.73;;;1.20;;
68608;SDS011;55581;46.718;7.690;2023-07-13T13:50:01;3.40;;;1.27;;
68608;SDS011;55581;46.718;7.690;2023-07-13T13:52:27;3.45;;;1.40;;
68608;SDS011;55581;46.718;7.690;2023-07-13T13:54:54;3.70;;;1.17;;
68608;SDS011;55581;46.718;7.690;2023-07-13T13:57:23;4.85;;;1.38;;
68608;SDS011;55581;46.718;7.690;2023-07-13T13:59:50;3.25;;;1.23;;
68608;SDS011;55581;46.718;7.690;2023-07-13T14:02:22;3.45;;;1.50;;
68608;SDS011;55581;46.718;7.690;2023-07-13T14:04:53;3.90;;;1.23;;
68608;SDS011;55581;46.718;7.690;2023-07-13T14:07:24;4.28;;;1.00;;
68608;SDS011;55581;46.718;7.690;2023-07-13T14:09:52;3.28;;;1.17;;
68608;SDS011;55581;46.718;7.690;2023-07-13T14:12:20;3.53;;;1.35;;
68608;SDS011;55581;46.718;7.690;2023-07-13T14:14:49;2.80;;;1.25;;
68608;SDS011;55581;46.718;7.690;2023-07-13T14:17:17;3.97;;;1.17;;
68608;SDS011;55581;46.718;7.690;2023-07-13T14:19:50;3.33;;;1.20;;
68608;SDS011;55581;46.718;7.690;2023-07-13T14:22:17;2.88;;;1.33;;
68608;SDS011;55581;46.718;7.690;2023-07-13T14:24:43;4.47;;;1.90;;
68608;SDS011;55581;46.718;7.690;2023-07-13T14:27:12;4.43;;;1.38;;
68608;SDS011;55581;46.718;7.690;2023-07-13T14:29:40;4.47;;;2.45;;
68608;SDS011;55581;46.718;7.690;2023-07-13T14:32:09;3.25;;;1.48;;
68608;SDS011;55581;46.718;7.690;2023-07-13T14:34:36;3.30;;;1.23;;
68608;SDS011;55581;46.718;7.690;2023-07-13T14:37:04;4.45;;;1.30;;
68608;SDS011;55581;46.718;7.690;2023-07-13T14:39:31;4.57;;;2.58;;
68608;SDS011;55581;46.718;7.690;2023-07-13T14:41:57;5.07;;;1.60;;
68608;SDS011;55581;46.718;7.690;2023-07-13T14:44:29;2.63;;;1.20;;
68608;SDS011;55581;46.718;7.690;2023-07-13T14:46:59;3.85;;;1.83;;
68608;SDS011;55581;46.718;7.690;2023-07-13T14:49:36;3.72;;;1.45;;
68608;SDS011;55581;46.718;7.690;2023-07-13T14:52:11;3.53;;;1.30;;
68608;SDS011;55581;46.718;7.690;2023-07-13T14:54:39;3.25;;;1.50;;
68608;SDS011;55581;46.718;7.690;2023-07-13T14:57:13;3.40;;;0.98;;
68608;SDS011;55581;46.718;7.690;2023-07-13T14:59:40;3.75;;;1.50;;
68608;SDS011;55581;46.718;7.690;2023-07-13T15:02:28;4.45;;;1.40;;
68608;SDS011;55581;46.718;7.690;2023-07-13T15:04:57;3.27;;;1.50;;
68608;SDS011;55581;46.718;7.690;2023-07-13T15:07:26;4.90;;;1.30;;
68608;SDS011;55581;46.718;7.690;2023-07-13T15:09:51;2.63;;;1.00;;
68608;SDS011;55581;46.718;7.690;2023-07-13T15:12:17;3.33;;;1.25;;
68608;SDS011;55581;46.718;7.690;2023-07-13T15:14:42;4.00;;;1.23;;
68608;SDS011;55581;46.718;7.690;2023-07-13T15:17:21;3.20;;;1.50;;
68608;SDS011;55581;46.718;7.690;2023-07-13T15:20:31;3.00;;;1.27;;
68608;SDS011;55581;46.718;7.690;2023-07-13T15:22:57;3.80;;;1.30;;
68608;SDS011;55581;46.718;7.690;2023-07-13T15:25:25;4.57;;;1.60;;
68608;SDS011;55581;46.718;7.690;2023-07-13T15:27:53;4.03;;;1.23;;
68608;SDS011;55581;46.718;7.690;2023-07-13T15:30:20;6.40;;;4.30;;
68608;SDS011;55581;46.718;7.690;2023-07-13T15:32:46;3.80;;;1.97;;